Summer Lake, Oregon
Current Conditions -  °F | °C
As of 11:15 AM on Saturday 20 Dec 2014 (Local Time) from KLKV Reporting Station
Overcast Overcast  
Wind Chill: 28°   Ceiling: 1900
Heat Index: 37°   Visibility: 10mi
Dew Point: 34°   Wind: 16mph
Humidity: 87%   Direction: 170°S
Pressure: 30.01"   Gusts: 23mph
Location:  42.97°N, 120.78°W
Report Text: KLKV 201915Z 17014G20KT 10SM BKN019 OVC024 03/01 A3001 RMK AO1
Loading
Personal Weather Stations






























Interactive Weather Map New forecast layout! Learn more

10-Day Weather Forecast

Advertisements
Track Severe Weather on mobile